オスロ の空港の天気 - METARとTAF

オスロ空港 ( ENGM / OSL ) - ノルウェー アーケシュフース県オスロ
飛行場実況気象(Metar)
観測時間04/21 18:50 CEST (04/21 16:50 UTC)
風向・風速南西 4m/s
視程10km以上
天気現象
なし
気温16℃
湿度39%
気圧1018hPa
METARENGM 211650Z 23008KT 200V260 CAVOK 16/02 Q1018 NOSIG
過去の天気等 Google飛行場航空写真 Wunderground天気予報

過去48時間のMETAR

飛行場予報(TAF)
発表時間: -
21日20時 CEST ~ 21日22時 CEST に徐々に
風向・風速不定 3m/s
TAF ENGM 2112/2212 19010KT CAVOK
BECMG 2118/2120 VRB05KT